Smit Orleans — CFN5087 — position and weather

sailwx.info

Track history (hours):
 
Tides and Currents Weather Stations Pressure Air Temp Water Temp Dewpoint Dewpoint Depression Visibility Wind Speed Wind Dir Waves Ship Positions

Smit Orleans

Last reported at 2014-Jul-23 02:33 UTC. Time now 2014-Jul-23 03:15 UTC.
Position N 49°19' W 123°08'.

Length 29 m; draft 5.1 m.

Type: . MMSI: 316012721.

Date/timePositionNaut miles runAvg speedWind from/ knotsBaromVisibWave heightAir tempDewpointWater temp
2014-Jul-23 02:33N 49°19' W 123°08'3 2.5
2014-Jul-23 01:33N 49°18' W 123°04'1 0.5
2014-Jul-23 00:33N 49°17' W 123°04'0 0.0
2014-Jul-22 23:33N 49°17' W 123°04'0 0.0
2014-Jul-22 22:33N 49°17' W 123°04'0 0.0
2014-Jul-22 21:33N 49°17' W 123°04'0 0.0
2014-Jul-22 20:33N 49°17' W 123°04'0 0.0
2014-Jul-22 19:33N 49°17' W 123°04'0 0.0
2014-Jul-22 18:33N 49°17' W 123°04'0 0.0
2014-Jul-22 17:33N 49°17' W 123°04'0 0.0
2014-Jul-22 16:33N 49°17' W 123°04'0 0.0
2014-Jul-22 15:33N 49°17' W 123°04'0 0.0
2014-Jul-22 14:33N 49°17' W 123°04'0 0.0
2014-Jul-22 13:33N 49°17' W 123°04'0 0.0
2014-Jul-22 12:33N 49°17' W 123°04'0 0.0
2014-Jul-22 11:33N 49°17' W 123°04'0 0.0
2014-Jul-22 10:33N 49°17' W 123°04'0 0.0
2014-Jul-22 09:33N 49°17' W 123°04'0 0.0
2014-Jul-22 08:33N 49°17' W 123°04'0 0.0
2014-Jul-22 07:33N 49°17' W 123°04'0 0.0
2014-Jul-22 06:33N 49°17' W 123°04'0 0.0
2014-Jul-22 05:33N 49°17' W 123°04'0 0.0
2014-Jul-22 04:33N 49°17' W 123°04'0 0.0
2014-Jul-22 03:33N 49°17' W 123°04'0 0.0
2014-Jul-22 02:33N 49°17' W 123°04'0 0.0
2014-Jul-22 01:33N 49°17' W 123°04'0 0.0
2014-Jul-22 00:33N 49°17' W 123°04'0 0.0
2014-Jul-21 23:33N 49°17' W 123°04'2 2.5
2014-Jul-21 22:33N 49°19' W 123°07'1 1.2
2014-Jul-21 21:33N 49°18' W 123°06'1 1.3
2014-Jul-21 20:33N 49°17' W 123°04'0 0.0
2014-Jul-21 20:18N 49°17' W 123°04'0 0.0
2014-Jul-21 19:33N 49°17' W 123°04'0 0.0
2014-Jul-21 18:33N 49°17' W 123°04'0 0.0
2014-Jul-21 17:33N 49°17' W 123°04'0 0.0
2014-Jul-21 16:33N 49°17' W 123°04'0 0.0
2014-Jul-21 15:33N 49°17' W 123°04'0 0.0
2014-Jul-21 14:33N 49°17' W 123°04'1 0.8
2014-Jul-21 13:33N 49°17' W 123°05'1 0.8
2014-Jul-21 12:33N 49°17' W 123°04'0 0.0
2014-Jul-21 11:33N 49°17' W 123°04'0 0.0
2014-Jul-21 10:33N 49°17' W 123°04'0 0.0
2014-Jul-21 09:33N 49°17' W 123°04'0 0.0
2014-Jul-21 08:33N 49°17' W 123°04'0 0.0
2014-Jul-21 07:33N 49°17' W 123°04'0 0.0
2014-Jul-21 06:33N 49°17' W 123°04'0 0.0
2014-Jul-21 05:33N 49°17' W 123°04'0 0.0
2014-Jul-21 04:33N 49°17' W 123°04'0 0.0
2014-Jul-21 03:33N 49°17' W 123°04'0 0.0
2014-Jul-21 02:33N 49°17' W 123°04'0 0.0
2014-Jul-21 01:33N 49°17' W 123°04'1 0.8
2014-Jul-21 00:33N 49°18' W 123°03'1 0.8
2014-Jul-20 23:33N 49°17' W 123°04'0 0.0
2014-Jul-20 22:33N 49°17' W 123°04'0 0.0
2014-Jul-20 21:33N 49°17' W 123°04'0 0.0
2014-Jul-20 20:33N 49°17' W 123°04'0 0.0
2014-Jul-20 19:33N 49°17' W 123°04'0 0.0
2014-Jul-20 18:34N 49°17' W 123°04'0 0.0
2014-Jul-20 17:33N 49°17' W 123°04'0 0.0
2014-Jul-20 16:33N 49°17' W 123°04'0 0.0
2014-Jul-20 15:33N 49°17' W 123°04'0 0.0
2014-Jul-20 14:33N 49°17' W 123°04'0 0.0
2014-Jul-20 13:33N 49°17' W 123°04'0 0.0
2014-Jul-20 12:33N 49°17' W 123°04'0 0.0
2014-Jul-20 11:33N 49°17' W 123°04'0 0.0
2014-Jul-20 10:33N 49°17' W 123°04'0 0.0
2014-Jul-20 09:34N 49°17' W 123°04'0 0.0
2014-Jul-20 08:33N 49°17' W 123°04'0 0.0
2014-Jul-20 07:33N 49°17' W 123°04'0 0.0
2014-Jul-20 06:33N 49°17' W 123°04'0 0.0
2014-Jul-20 05:34N 49°17' W 123°04'0 0.0
2014-Jul-20 04:33N 49°17' W 123°04'0 0.0
2014-Jul-20 03:33N 49°17' W 123°04'0 0.0
2014-Jul-20 02:33N 49°17' W 123°04'1 0.6
2014-Jul-20 01:33N 49°18' W 123°04'1 0.6
2014-Jul-20 00:33N 49°17' W 123°04'0 0.0
2014-Jul-19 23:33N 49°17' W 123°04'0 0.0
2014-Jul-19 22:33N 49°17' W 123°04'0 0.0
2014-Jul-19 21:33N 49°17' W 123°04'0 0.0
2014-Jul-19 20:33N 49°17' W 123°04'0 0.0
2014-Jul-19 19:33N 49°17' W 123°04'0 0.0
2014-Jul-19 18:33N 49°17' W 123°04'0 0.0
2014-Jul-19 17:33N 49°17' W 123°04'0 0.0
2014-Jul-19 16:33N 49°17' W 123°04'0 0.0
2014-Jul-19 15:33N 49°17' W 123°04'0 0.0
2014-Jul-19 14:33N 49°17' W 123°04'0 0.0
2014-Jul-19 13:33N 49°17' W 123°04'0 0.0
2014-Jul-19 12:33N 49°17' W 123°04'0 0.0
2014-Jul-19 11:33N 49°17' W 123°04'0 0.0
2014-Jul-19 10:33N 49°17' W 123°04'0 0.0
2014-Jul-19 09:33N 49°17' W 123°04'1 1.3
2014-Jul-19 08:33N 49°17' W 123°06'2 1.7
2014-Jul-19 07:33N 49°19' W 123°07'3 2.6
2014-Jul-19 06:33N 49°17' W 123°04'0 0.0
2014-Jul-19 05:33N 49°17' W 123°04'0 0.0
2014-Jul-19 04:33N 49°17' W 123°04'0 0.0
2014-Jul-19 03:33N 49°17' W 123°04'0 0.0
2014-Jul-19 02:33N 49°17' W 123°04'1 1.1
2014-Jul-19 01:33N 49°18' W 123°02'1 1.2
2014-Jul-19 00:33N 49°18' W 123°04'1 1.1
2014-Jul-18 23:33N 49°18' W 123°02'1 1.0
2014-Jul-18 22:33N 49°17' W 123°04'0 0.0
2014-Jul-18 21:33N 49°17' W 123°04'0 0.0
2014-Jul-18 20:33N 49°17' W 123°04'0 0.0
2014-Jul-18 19:33N 49°17' W 123°04'0 0.0
2014-Jul-18 18:33N 49°17' W 123°04'0 0.0
2014-Jul-18 17:33N 49°17' W 123°04'0 0.0
2014-Jul-18 16:33N 49°17' W 123°04'0 0.0
2014-Jul-18 15:33N 49°17' W 123°04'0 0.5
2014-Jul-18 14:33N 49°17' W 123°04'0 0.5
2014-Jul-18 13:33N 49°17' W 123°04'0 0.0
2014-Jul-18 12:33N 49°17' W 123°04'0 0.0
2014-Jul-18 11:33N 49°17' W 123°04'0 0.0
2014-Jul-18 10:33N 49°17' W 123°04'0 0.0
2014-Jul-18 09:33N 49°17' W 123°04'0 0.0
2014-Jul-18 08:33N 49°17' W 123°04'0 0.0
2014-Jul-18 07:33N 49°17' W 123°04'0 0.0
2014-Jul-18 06:33N 49°17' W 123°04'0 0.0
2014-Jul-18 05:33N 49°17' W 123°04'0 0.0
2014-Jul-18 04:33N 49°17' W 123°04'0 0.0
2014-Jul-18 03:33N 49°17' W 123°04'0 0.0
2014-Jul-18 02:33N 49°17' W 123°04'0 0.0
2014-Jul-18 01:33N 49°17' W 123°04'0 0.0
2014-Jul-18 00:33N 49°17' W 123°04'0 0.0
2014-Jul-17 23:33N 49°17' W 123°04'0 0.0
2014-Jul-17 22:33N 49°17' W 123°04'0 0.0
2014-Jul-17 21:33N 49°17' W 123°04'0 0.0
2014-Jul-17 20:33N 49°17' W 123°04'0 0.0
2014-Jul-17 19:33N 49°17' W 123°04'0 0.0
2014-Jul-17 18:33N 49°17' W 123°04'0 0.0
2014-Jul-17 17:33N 49°17' W 123°04'0 0.0
2014-Jul-17 16:33N 49°17' W 123°04'0 0.0
2014-Jul-17 15:33N 49°17' W 123°04'0 0.0
2014-Jul-17 14:33N 49°17' W 123°04'0 0.0
2014-Jul-17 13:33N 49°17' W 123°04'0 0.0
2014-Jul-17 12:33N 49°17' W 123°04'0 0.0
2014-Jul-17 11:33N 49°17' W 123°04'0 0.0
2014-Jul-17 10:33N 49°17' W 123°04'0 0.0
2014-Jul-17 09:33N 49°17' W 123°04'0 0.0
2014-Jul-17 08:33N 49°17' W 123°04'0 0.0
2014-Jul-17 07:33N 49°17' W 123°04'0 0.0
2014-Jul-17 06:33N 49°17' W 123°04'0 0.0
2014-Jul-17 05:33N 49°17' W 123°04'1 1.3
2014-Jul-17 04:33N 49°17' W 123°06'0 0.0
2014-Jul-17 03:33N 49°17' W 123°06'1 1.3
2014-Jul-17 02:33N 49°17' W 123°04'0 0.0
2014-Jul-17 01:33N 49°17' W 123°04'0 0.0
2014-Jul-17 00:33N 49°17' W 123°04'0 0.0
2014-Jul-16 23:33N 49°17' W 123°04'0 0.0
2014-Jul-16 22:33N 49°17' W 123°04'0 0.0
2014-Jul-16 21:33N 49°17' W 123°04'0 0.0
2014-Jul-16 20:33N 49°17' W 123°04'0 0.0
2014-Jul-16 19:33N 49°17' W 123°04'0 0.0
2014-Jul-16 18:33N 49°17' W 123°04'0 0.0
2014-Jul-16 17:33N 49°17' W 123°04'0 0.0
2014-Jul-16 16:33N 49°17' W 123°04'0 0.0
2014-Jul-16 15:33N 49°17' W 123°04'0 0.0
2014-Jul-16 14:33N 49°17' W 123°04'0 0.0
2014-Jul-16 13:33N 49°17' W 123°04'0 0.0
2014-Jul-16 12:33N 49°17' W 123°04'0 0.0
2014-Jul-16 11:33N 49°17' W 123°04'0 0.0
2014-Jul-16 10:33N 49°17' W 123°04'0 0.0
2014-Jul-16 09:33N 49°17' W 123°04'0 0.0
2014-Jul-16 08:33N 49°17' W 123°04'4 3.8
2014-Jul-16 07:33N 49°19' W 123°09'7 7.3
2014-Jul-16 06:33N 49°23' W 123°18'9 9.2
2014-Jul-16 05:33N 49°32' W 123°16'9 8.4
2014-Jul-16 04:29N 49°41' W 123°11'1 1.0
2014-Jul-16 03:30N 49°40' W 123°12'8 8.7
2014-Jul-16 02:33N 49°32' W 123°16'9 9.4
2014-Jul-16 01:33N 49°23' W 123°18'8 7.6
2014-Jul-16 00:33N 49°19' W 123°08'3 3.3
2014-Jul-15 23:33N 49°17' W 123°04'0 0.0
2014-Jul-15 22:33N 49°17' W 123°04'0 0.0
2014-Jul-15 21:33N 49°17' W 123°04'0 0.0
2014-Jul-15 20:33N 49°17' W 123°04'0 0.0
2014-Jul-15 19:33N 49°17' W 123°04'0 0.0
2014-Jul-15 18:33N 49°17' W 123°04'0 0.0
2014-Jul-15 17:33N 49°17' W 123°04'0 0.0
2014-Jul-15 16:33N 49°17' W 123°04'0 0.0
2014-Jul-15 15:33N 49°17' W 123°04'0 0.0
2014-Jul-15 14:33N 49°17' W 123°04'0 0.0
2014-Jul-15 13:33N 49°17' W 123°04'0 0.0
2014-Jul-15 12:33N 49°17' W 123°04'0 0.0
2014-Jul-15 11:33N 49°17' W 123°04'0 0.0
2014-Jul-15 10:34N 49°17' W 123°04'0 0.0
2014-Jul-15 09:33N 49°17' W 123°04'0 0.0
2014-Jul-15 08:33N 49°17' W 123°04'0 0.0
2014-Jul-15 07:33N 49°17' W 123°04'0 0.0
2014-Jul-15 06:33N 49°17' W 123°04'0 0.0
2014-Jul-15 05:33N 49°17' W 123°04'0 0.0
2014-Jul-15 04:33N 49°17' W 123°04'0 0.0
2014-Jul-15 03:33N 49°17' W 123°04'0 0.0
2014-Jul-15 02:33N 49°17' W 123°04'0 0.0
2014-Jul-15 01:33N 49°17' W 123°04'0 0.0
2014-Jul-15 00:33N 49°17' W 123°04'0 0.0
2014-Jul-14 23:33N 49°17' W 123°04'0 0.0
2014-Jul-14 22:33N 49°17' W 123°04'0 0.0
2014-Jul-14 21:33N 49°17' W 123°04'0 0.0
2014-Jul-14 20:33N 49°17' W 123°04'0 0.0
2014-Jul-14 19:34N 49°17' W 123°04'0 0.0
2014-Jul-14 18:33N 49°17' W 123°04'0 0.0
2014-Jul-14 17:33N 49°17' W 123°04'0 0.0
2014-Jul-14 16:33N 49°17' W 123°04'0 0.0
2014-Jul-14 15:33N 49°17' W 123°04'0 0.0
2014-Jul-14 14:33N 49°17' W 123°04'0 0.0
2014-Jul-14 13:33N 49°17' W 123°04'0 0.0
2014-Jul-14 12:33N 49°17' W 123°04'0 0.0
2014-Jul-14 11:33N 49°17' W 123°04'0 0.0
2014-Jul-14 10:33N 49°17' W 123°04'0 0.0
2014-Jul-14 09:33N 49°17' W 123°04'0 0.0
2014-Jul-14 08:33N 49°17' W 123°04'0 0.0
2014-Jul-14 07:33N 49°17' W 123°04'0 0.0
2014-Jul-14 06:33N 49°17' W 123°04'0 0.0
2014-Jul-14 05:33N 49°17' W 123°04'0 0.0
2014-Jul-14 04:33N 49°17' W 123°04'0 0.0
2014-Jul-14 03:33N 49°17' W 123°04'0 0.0
2014-Jul-14 02:33N 49°17' W 123°04'0 0.0
2014-Jul-14 01:33N 49°17' W 123°04'0 0.0
2014-Jul-14 00:33N 49°17' W 123°04'0 0.0
2014-Jul-13 23:33N 49°17' W 123°04'0 0.0
2014-Jul-13 22:33N 49°17' W 123°04'0 0.0
2014-Jul-13 21:33N 49°17' W 123°04'0 0.0
2014-Jul-13 20:33N 49°17' W 123°04'0 0.0
2014-Jul-13 19:33N 49°17' W 123°04'0 0.0
2014-Jul-13 18:33N 49°17' W 123°04'0 0.0
2014-Jul-13 17:33N 49°17' W 123°04'0 0.0
2014-Jul-13 16:33N 49°17' W 123°04'0 0.0
2014-Jul-13 15:33N 49°17' W 123°04'0 0.0
2014-Jul-13 14:33N 49°17' W 123°04'0 0.0
2014-Jul-13 13:33N 49°17' W 123°04'0 0.0
2014-Jul-13 12:33N 49°17' W 123°04'0 0.0
2014-Jul-13 11:33N 49°17' W 123°04'0 0.0
2014-Jul-13 10:33N 49°17' W 123°04'0 0.0
2014-Jul-13 09:33N 49°17' W 123°04'0 0.0
2014-Jul-13 08:33N 49°17' W 123°04'0 0.0
2014-Jul-13 07:33N 49°17' W 123°04'0 0.0
2014-Jul-13 06:34N 49°17' W 123°04'0 0.0
2014-Jul-13 05:33N 49°17' W 123°04'0 0.0
2014-Jul-13 04:33N 49°17' W 123°04'0 0.0
2014-Jul-13 03:33N 49°17' W 123°04'0 0.0
2014-Jul-13 02:33N 49°17' W 123°04'  
Track history (hours):
 
Tides and Currents Weather Stations Pressure Air Temp Water Temp Dewpoint Dewpoint Depression Visibility Wind Speed Wind Dir Waves Ship Positions

Smit Orleans

Last reported at 2014-Jul-23 02:33 UTC. Time now 2014-Jul-23 03:15 UTC.
Position N 49°19' W 123°08'.

Length 29 m; draft 5.1 m.

Type: . MMSI: 316012721.

Date/timePositionNaut miles runAvg speedWind from/ knotsBaromVisibWave heightAir tempDewpointWater temp
2014-Jul-23 02:33N 49°19' W 123°08'3 2.5
2014-Jul-23 01:33N 49°18' W 123°04'1 0.5
2014-Jul-23 00:33N 49°17' W 123°04'0 0.0
2014-Jul-22 23:33N 49°17' W 123°04'0 0.0
2014-Jul-22 22:33N 49°17' W 123°04'0 0.0
2014-Jul-22 21:33N 49°17' W 123°04'0 0.0
2014-Jul-22 20:33N 49°17' W 123°04'0 0.0
2014-Jul-22 19:33N 49°17' W 123°04'0 0.0
2014-Jul-22 18:33N 49°17' W 123°04'0 0.0
2014-Jul-22 17:33N 49°17' W 123°04'0 0.0
2014-Jul-22 16:33N 49°17' W 123°04'0 0.0
2014-Jul-22 15:33N 49°17' W 123°04'0 0.0
2014-Jul-22 14:33N 49°17' W 123°04'0 0.0
2014-Jul-22 13:33N 49°17' W 123°04'0 0.0
2014-Jul-22 12:33N 49°17' W 123°04'0 0.0
2014-Jul-22 11:33N 49°17' W 123°04'0 0.0
2014-Jul-22 10:33N 49°17' W 123°04'0 0.0
2014-Jul-22 09:33N 49°17' W 123°04'0 0.0
2014-Jul-22 08:33N 49°17' W 123°04'0 0.0
2014-Jul-22 07:33N 49°17' W 123°04'0 0.0
2014-Jul-22 06:33N 49°17' W 123°04'0 0.0
2014-Jul-22 05:33N 49°17' W 123°04'0 0.0
2014-Jul-22 04:33N 49°17' W 123°04'0 0.0
2014-Jul-22 03:33N 49°17' W 123°04'0 0.0
2014-Jul-22 02:33N 49°17' W 123°04'0 0.0
2014-Jul-22 01:33N 49°17' W 123°04'0 0.0
2014-Jul-22 00:33N 49°17' W 123°04'0 0.0
2014-Jul-21 23:33N 49°17' W 123°04'2 2.5
2014-Jul-21 22:33N 49°19' W 123°07'1 1.2
2014-Jul-21 21:33N 49°18' W 123°06'1 1.3
2014-Jul-21 20:33N 49°17' W 123°04'0 0.0
2014-Jul-21 20:18N 49°17' W 123°04'0 0.0
2014-Jul-21 19:33N 49°17' W 123°04'0 0.0
2014-Jul-21 18:33N 49°17' W 123°04'0 0.0
2014-Jul-21 17:33N 49°17' W 123°04'0 0.0
2014-Jul-21 16:33N 49°17' W 123°04'0 0.0
2014-Jul-21 15:33N 49°17' W 123°04'0 0.0
2014-Jul-21 14:33N 49°17' W 123°04'1 0.8
2014-Jul-21 13:33N 49°17' W 123°05'1 0.8
2014-Jul-21 12:33N 49°17' W 123°04'0 0.0
2014-Jul-21 11:33N 49°17' W 123°04'0 0.0
2014-Jul-21 10:33N 49°17' W 123°04'0 0.0
2014-Jul-21 09:33N 49°17' W 123°04'0 0.0
2014-Jul-21 08:33N 49°17' W 123°04'0 0.0
2014-Jul-21 07:33N 49°17' W 123°04'0 0.0
2014-Jul-21 06:33N 49°17' W 123°04'0 0.0
2014-Jul-21 05:33N 49°17' W 123°04'0 0.0
2014-Jul-21 04:33N 49°17' W 123°04'0 0.0
2014-Jul-21 03:33N 49°17' W 123°04'0 0.0
2014-Jul-21 02:33N 49°17' W 123°04'0 0.0
2014-Jul-21 01:33N 49°17' W 123°04'1 0.8
2014-Jul-21 00:33N 49°18' W 123°03'1 0.8
2014-Jul-20 23:33N 49°17' W 123°04'0 0.0
2014-Jul-20 22:33N 49°17' W 123°04'0 0.0
2014-Jul-20 21:33N 49°17' W 123°04'0 0.0
2014-Jul-20 20:33N 49°17' W 123°04'0 0.0
2014-Jul-20 19:33N 49°17' W 123°04'0 0.0
2014-Jul-20 18:34N 49°17' W 123°04'0 0.0
2014-Jul-20 17:33N 49°17' W 123°04'0 0.0
2014-Jul-20 16:33N 49°17' W 123°04'0 0.0
2014-Jul-20 15:33N 49°17' W 123°04'0 0.0
2014-Jul-20 14:33N 49°17' W 123°04'0 0.0
2014-Jul-20 13:33N 49°17' W 123°04'0 0.0
2014-Jul-20 12:33N 49°17' W 123°04'0 0.0
2014-Jul-20 11:33N 49°17' W 123°04'0 0.0
2014-Jul-20 10:33N 49°17' W 123°04'0 0.0
2014-Jul-20 09:34N 49°17' W 123°04'0 0.0
2014-Jul-20 08:33N 49°17' W 123°04'0 0.0
2014-Jul-20 07:33N 49°17' W 123°04'0 0.0
2014-Jul-20 06:33N 49°17' W 123°04'0 0.0
2014-Jul-20 05:34N 49°17' W 123°04'0 0.0
2014-Jul-20 04:33N 49°17' W 123°04'0 0.0
2014-Jul-20 03:33N 49°17' W 123°04'0 0.0
2014-Jul-20 02:33N 49°17' W 123°04'1 0.6
2014-Jul-20 01:33N 49°18' W 123°04'1 0.6
2014-Jul-20 00:33N 49°17' W 123°04'0 0.0
2014-Jul-19 23:33N 49°17' W 123°04'0 0.0
2014-Jul-19 22:33N 49°17' W 123°04'0 0.0
2014-Jul-19 21:33N 49°17' W 123°04'0 0.0
2014-Jul-19 20:33N 49°17' W 123°04'0 0.0
2014-Jul-19 19:33N 49°17' W 123°04'0 0.0
2014-Jul-19 18:33N 49°17' W 123°04'0 0.0
2014-Jul-19 17:33N 49°17' W 123°04'0 0.0
2014-Jul-19 16:33N 49°17' W 123°04'0 0.0
2014-Jul-19 15:33N 49°17' W 123°04'0 0.0
2014-Jul-19 14:33N 49°17' W 123°04'0 0.0
2014-Jul-19 13:33N 49°17' W 123°04'0 0.0
2014-Jul-19 12:33N 49°17' W 123°04'0 0.0
2014-Jul-19 11:33N 49°17' W 123°04'0 0.0
2014-Jul-19 10:33N 49°17' W 123°04'0 0.0
2014-Jul-19 09:33N 49°17' W 123°04'1 1.3
2014-Jul-19 08:33N 49°17' W 123°06'2 1.7
2014-Jul-19 07:33N 49°19' W 123°07'3 2.6
2014-Jul-19 06:33N 49°17' W 123°04'0 0.0
2014-Jul-19 05:33N 49°17' W 123°04'0 0.0
2014-Jul-19 04:33N 49°17' W 123°04'0 0.0
2014-Jul-19 03:33N 49°17' W 123°04'0 0.0
2014-Jul-19 02:33N 49°17' W 123°04'1 1.1
2014-Jul-19 01:33N 49°18' W 123°02'1 1.2
2014-Jul-19 00:33N 49°18' W 123°04'1 1.1
2014-Jul-18 23:33N 49°18' W 123°02'1 1.0
2014-Jul-18 22:33N 49°17' W 123°04'0 0.0
2014-Jul-18 21:33N 49°17' W 123°04'0 0.0
2014-Jul-18 20:33N 49°17' W 123°04'0 0.0
2014-Jul-18 19:33N 49°17' W 123°04'0 0.0
2014-Jul-18 18:33N 49°17' W 123°04'0 0.0
2014-Jul-18 17:33N 49°17' W 123°04'0 0.0
2014-Jul-18 16:33N 49°17' W 123°04'0 0.0
2014-Jul-18 15:33N 49°17' W 123°04'0 0.5
2014-Jul-18 14:33N 49°17' W 123°04'0 0.5
2014-Jul-18 13:33N 49°17' W 123°04'0 0.0
2014-Jul-18 12:33N 49°17' W 123°04'0 0.0
2014-Jul-18 11:33N 49°17' W 123°04'0 0.0
2014-Jul-18 10:33N 49°17' W 123°04'0 0.0
2014-Jul-18 09:33N 49°17' W 123°04'0 0.0
2014-Jul-18 08:33N 49°17' W 123°04'0 0.0
2014-Jul-18 07:33N 49°17' W 123°04'0 0.0
2014-Jul-18 06:33N 49°17' W 123°04'0 0.0
2014-Jul-18 05:33N 49°17' W 123°04'0 0.0
2014-Jul-18 04:33N 49°17' W 123°04'0 0.0
2014-Jul-18 03:33N 49°17' W 123°04'0 0.0
2014-Jul-18 02:33N 49°17' W 123°04'0 0.0
2014-Jul-18 01:33N 49°17' W 123°04'0 0.0
2014-Jul-18 00:33N 49°17' W 123°04'0 0.0
2014-Jul-17 23:33N 49°17' W 123°04'0 0.0
2014-Jul-17 22:33N 49°17' W 123°04'0 0.0
2014-Jul-17 21:33N 49°17' W 123°04'0 0.0
2014-Jul-17 20:33N 49°17' W 123°04'0 0.0
2014-Jul-17 19:33N 49°17' W 123°04'0 0.0
2014-Jul-17 18:33N 49°17' W 123°04'0 0.0
2014-Jul-17 17:33N 49°17' W 123°04'0 0.0
2014-Jul-17 16:33N 49°17' W 123°04'0 0.0
2014-Jul-17 15:33N 49°17' W 123°04'0 0.0
2014-Jul-17 14:33N 49°17' W 123°04'0 0.0
2014-Jul-17 13:33N 49°17' W 123°04'0 0.0
2014-Jul-17 12:33N 49°17' W 123°04'0 0.0
2014-Jul-17 11:33N 49°17' W 123°04'0 0.0
2014-Jul-17 10:33N 49°17' W 123°04'0 0.0
2014-Jul-17 09:33N 49°17' W 123°04'0 0.0
2014-Jul-17 08:33N 49°17' W 123°04'0 0.0
2014-Jul-17 07:33N 49°17' W 123°04'0 0.0
2014-Jul-17 06:33N 49°17' W 123°04'0 0.0
2014-Jul-17 05:33N 49°17' W 123°04'1 1.3
2014-Jul-17 04:33N 49°17' W 123°06'0 0.0
2014-Jul-17 03:33N 49°17' W 123°06'1 1.3
2014-Jul-17 02:33N 49°17' W 123°04'0 0.0
2014-Jul-17 01:33N 49°17' W 123°04'0 0.0
2014-Jul-17 00:33N 49°17' W 123°04'0 0.0
2014-Jul-16 23:33N 49°17' W 123°04'0 0.0
2014-Jul-16 22:33N 49°17' W 123°04'0 0.0
2014-Jul-16 21:33N 49°17' W 123°04'0 0.0
2014-Jul-16 20:33N 49°17' W 123°04'0 0.0
2014-Jul-16 19:33N 49°17' W 123°04'0 0.0
2014-Jul-16 18:33N 49°17' W 123°04'0 0.0
2014-Jul-16 17:33N 49°17' W 123°04'0 0.0
2014-Jul-16 16:33N 49°17' W 123°04'0 0.0
2014-Jul-16 15:33N 49°17' W 123°04'0 0.0
2014-Jul-16 14:33N 49°17' W 123°04'0 0.0
2014-Jul-16 13:33N 49°17' W 123°04'0 0.0
2014-Jul-16 12:33N 49°17' W 123°04'0 0.0
2014-Jul-16 11:33N 49°17' W 123°04'0 0.0
2014-Jul-16 10:33N 49°17' W 123°04'0 0.0
2014-Jul-16 09:33N 49°17' W 123°04'0 0.0
2014-Jul-16 08:33N 49°17' W 123°04'4 3.8
2014-Jul-16 07:33N 49°19' W 123°09'7 7.3
2014-Jul-16 06:33N 49°23' W 123°18'9 9.2
2014-Jul-16 05:33N 49°32' W 123°16'9 8.4
2014-Jul-16 04:29N 49°41' W 123°11'1 1.0
2014-Jul-16 03:30N 49°40' W 123°12'8 8.7
2014-Jul-16 02:33N 49°32' W 123°16'9 9.4
2014-Jul-16 01:33N 49°23' W 123°18'8 7.6
2014-Jul-16 00:33N 49°19' W 123°08'3 3.3
2014-Jul-15 23:33N 49°17' W 123°04'0 0.0
2014-Jul-15 22:33N 49°17' W 123°04'0 0.0
2014-Jul-15 21:33N 49°17' W 123°04'0 0.0
2014-Jul-15 20:33N 49°17' W 123°04'0 0.0
2014-Jul-15 19:33N 49°17' W 123°04'0 0.0
2014-Jul-15 18:33N 49°17' W 123°04'0 0.0
2014-Jul-15 17:33N 49°17' W 123°04'0 0.0
2014-Jul-15 16:33N 49°17' W 123°04'0 0.0
2014-Jul-15 15:33N 49°17' W 123°04'0 0.0
2014-Jul-15 14:33N 49°17' W 123°04'0 0.0
2014-Jul-15 13:33N 49°17' W 123°04'0 0.0
2014-Jul-15 12:33N 49°17' W 123°04'0 0.0
2014-Jul-15 11:33N 49°17' W 123°04'0 0.0
2014-Jul-15 10:34N 49°17' W 123°04'0 0.0
2014-Jul-15 09:33N 49°17' W 123°04'0 0.0
2014-Jul-15 08:33N 49°17' W 123°04'0 0.0
2014-Jul-15 07:33N 49°17' W 123°04'0 0.0
2014-Jul-15 06:33N 49°17' W 123°04'0 0.0
2014-Jul-15 05:33N 49°17' W 123°04'0 0.0
2014-Jul-15 04:33N 49°17' W 123°04'0 0.0
2014-Jul-15 03:33N 49°17' W 123°04'0 0.0
2014-Jul-15 02:33N 49°17' W 123°04'0 0.0
2014-Jul-15 01:33N 49°17' W 123°04'0 0.0
2014-Jul-15 00:33N 49°17' W 123°04'0 0.0
2014-Jul-14 23:33N 49°17' W 123°04'0 0.0
2014-Jul-14 22:33N 49°17' W 123°04'0 0.0
2014-Jul-14 21:33N 49°17' W 123°04'0 0.0
2014-Jul-14 20:33N 49°17' W 123°04'0 0.0
2014-Jul-14 19:34N 49°17' W 123°04'0 0.0
2014-Jul-14 18:33N 49°17' W 123°04'0 0.0
2014-Jul-14 17:33N 49°17' W 123°04'0 0.0
2014-Jul-14 16:33N 49°17' W 123°04'0 0.0
2014-Jul-14 15:33N 49°17' W 123°04'0 0.0
2014-Jul-14 14:33N 49°17' W 123°04'0 0.0
2014-Jul-14 13:33N 49°17' W 123°04'0 0.0
2014-Jul-14 12:33N 49°17' W 123°04'0 0.0
2014-Jul-14 11:33N 49°17' W 123°04'0 0.0
2014-Jul-14 10:33N 49°17' W 123°04'0 0.0
2014-Jul-14 09:33N 49°17' W 123°04'0 0.0
2014-Jul-14 08:33N 49°17' W 123°04'0 0.0
2014-Jul-14 07:33N 49°17' W 123°04'0 0.0
2014-Jul-14 06:33N 49°17' W 123°04'0 0.0
2014-Jul-14 05:33N 49°17' W 123°04'0 0.0
2014-Jul-14 04:33N 49°17' W 123°04'0 0.0
2014-Jul-14 03:33N 49°17' W 123°04'0 0.0
2014-Jul-14 02:33N 49°17' W 123°04'0 0.0
2014-Jul-14 01:33N 49°17' W 123°04'0 0.0
2014-Jul-14 00:33N 49°17' W 123°04'0 0.0
2014-Jul-13 23:33N 49°17' W 123°04'0 0.0
2014-Jul-13 22:33N 49°17' W 123°04'0 0.0
2014-Jul-13 21:33N 49°17' W 123°04'0 0.0
2014-Jul-13 20:33N 49°17' W 123°04'0 0.0
2014-Jul-13 19:33N 49°17' W 123°04'0 0.0
2014-Jul-13 18:33N 49°17' W 123°04'0 0.0
2014-Jul-13 17:33N 49°17' W 123°04'0 0.0
2014-Jul-13 16:33N 49°17' W 123°04'0 0.0
2014-Jul-13 15:33N 49°17' W 123°04'0 0.0
2014-Jul-13 14:33N 49°17' W 123°04'0 0.0
2014-Jul-13 13:33N 49°17' W 123°04'0 0.0
2014-Jul-13 12:33N 49°17' W 123°04'0 0.0
2014-Jul-13 11:33N 49°17' W 123°04'0 0.0
2014-Jul-13 10:33N 49°17' W 123°04'0 0.0
2014-Jul-13 09:33N 49°17' W 123°04'0 0.0
2014-Jul-13 08:33N 49°17' W 123°04'0 0.0
2014-Jul-13 07:33N 49°17' W 123°04'0 0.0
2014-Jul-13 06:34N 49°17' W 123°04'0 0.0
2014-Jul-13 05:33N 49°17' W 123°04'0 0.0
2014-Jul-13 04:33N 49°17' W 123°04'0 0.0
2014-Jul-13 03:33N 49°17' W 123°04'0 0.0
2014-Jul-13 02:33N 49°17' W 123°04'  

Dump ship's entire track history